sensor_id;sensor_type;location;lat;lon;timestamp;temperature;humidity
65752;DHT22;52486;51.098;13.770;2023-12-22T00:02:12;21.70;64.50
65752;DHT22;52486;51.098;13.770;2023-12-22T00:07:03;21.90;64.60
65752;DHT22;52486;51.098;13.770;2023-12-22T00:09:29;21.90;64.50
65752;DHT22;52486;51.098;13.770;2023-12-22T00:11:54;21.80;64.40
65752;DHT22;52486;51.098;13.770;2023-12-22T00:14:20;21.80;64.40
65752;DHT22;52486;51.098;13.770;2023-12-22T00:19:11;22.00;64.50
65752;DHT22;52486;51.098;13.770;2023-12-22T00:24:02;21.90;64.20
65752;DHT22;52486;51.098;13.770;2023-12-22T00:26:28;21.80;64.40
65752;DHT22;52486;51.098;13.770;2023-12-22T00:28:53;21.80;64.40
65752;DHT22;52486;51.098;13.770;2023-12-22T00:33:45;22.10;64.40
65752;DHT22;52486;51.098;13.770;2023-12-22T00:36:10;22.00;64.30
65752;DHT22;52486;51.098;13.770;2023-12-22T00:38:36;21.80;64.10
65752;DHT22;52486;51.098;13.770;2023-12-22T00:41:01;21.90;64.20
65752;DHT22;52486;51.098;13.770;2023-12-22T00:45:53;21.90;64.20
65752;DHT22;52486;51.098;13.770;2023-12-22T00:50:44;21.90;64.30
65752;DHT22;52486;51.098;13.770;2023-12-22T00:53:10;21.80;64.10
65752;DHT22;52486;51.098;13.770;2023-12-22T00:55:36;22.10;64.30
65752;DHT22;52486;51.098;13.770;2023-12-22T00:58:01;22.00;64.20
65752;DHT22;52486;51.098;13.770;2023-12-22T01:00:27;21.90;64.30
65752;DHT22;52486;51.098;13.770;2023-12-22T01:02:52;21.70;64.20
65752;DHT22;52486;51.098;13.770;2023-12-22T01:07:44;21.90;64.10
65752;DHT22;52486;51.098;13.770;2023-12-22T01:10:09;21.80;64.30
65752;DHT22;52486;51.098;13.770;2023-12-22T01:12:35;21.60;64.10
65752;DHT22;52486;51.098;13.770;2023-12-22T01:15:00;21.60;64.20
65752;DHT22;52486;51.098;13.770;2023-12-22T01:17:26;21.80;64.20
65752;DHT22;52486;51.098;13.770;2023-12-22T01:24:43;21.80;64.20
65752;DHT22;52486;51.098;13.770;2023-12-22T01:27:10;21.80;64.20
65752;DHT22;52486;51.098;13.770;2023-12-22T01:29:36;21.70;64.10
65752;DHT22;52486;51.098;13.770;2023-12-22T01:32:01;22.00;64.20
65752;DHT22;52486;51.098;13.770;2023-12-22T01:34:27;21.90;64.20
65752;DHT22;52486;51.098;13.770;2023-12-22T01:41:45;21.90;64.00
65752;DHT22;52486;51.098;13.770;2023-12-22T01:44:10;21.80;64.00
65752;DHT22;52486;51.098;13.770;2023-12-22T01:46:36;21.70;63.90
65752;DHT22;52486;51.098;13.770;2023-12-22T01:49:01;21.90;64.00
65752;DHT22;52486;51.098;13.770;2023-12-22T01:51:28;21.80;63.90
65752;DHT22;52486;51.098;13.770;2023-12-22T01:53:53;22.00;64.00
65752;DHT22;52486;51.098;13.770;2023-12-22T01:56:19;21.90;63.80
65752;DHT22;52486;51.098;13.770;2023-12-22T01:58:45;22.00;63.90
65752;DHT22;52486;51.098;13.770;2023-12-22T02:01:10;21.80;63.90
65752;DHT22;52486;51.098;13.770;2023-12-22T02:03:36;21.90;63.90
65752;DHT22;52486;51.098;13.770;2023-12-22T02:06:03;21.90;63.90
65752;DHT22;52486;51.098;13.770;2023-12-22T02:08:28;21.90;63.90
65752;DHT22;52486;51.098;13.770;2023-12-22T02:10:56;21.80;63.90
65752;DHT22;52486;51.098;13.770;2023-12-22T02:13:22;21.90;63.90
65752;DHT22;52486;51.098;13.770;2023-12-22T02:15:47;21.90;63.90
65752;DHT22;52486;51.098;13.770;2023-12-22T02:18:24;22.00;64.00
65752;DHT22;52486;51.098;13.770;2023-12-22T02:20:52;21.90;63.90
65752;DHT22;52486;51.098;13.770;2023-12-22T02:23:18;21.80;63.10
65752;DHT22;52486;51.098;13.770;2023-12-22T02:25:43;21.80;63.80
65752;DHT22;52486;51.098;13.770;2023-12-22T02:28:13;22.10;64.00
65752;DHT22;52486;51.098;13.770;2023-12-22T02:30:54;21.90;63.90
65752;DHT22;52486;51.098;13.770;2023-12-22T02:35:47;21.80;63.60
65752;DHT22;52486;51.098;13.770;2023-12-22T02:38:14;21.80;63.90
65752;DHT22;52486;51.098;13.770;2023-12-22T02:40:41;21.80;63.90
65752;DHT22;52486;51.098;13.770;2023-12-22T02:43:07;21.80;63.90
65752;DHT22;52486;51.098;13.770;2023-12-22T02:45:32;21.90;64.20
65752;DHT22;52486;51.098;13.770;2023-12-22T02:47:58;21.90;63.50
65752;DHT22;52486;51.098;13.770;2023-12-22T02:50:23;21.80;64.00
65752;DHT22;52486;51.098;13.770;2023-12-22T02:55:15;21.70;63.90
65752;DHT22;52486;51.098;13.770;2023-12-22T03:00:07;21.80;64.00
65752;DHT22;52486;51.098;13.770;2023-12-22T03:02:32;21.90;64.10
65752;DHT22;52486;51.098;13.770;2023-12-22T03:07:24;22.00;64.20
65752;DHT22;52486;51.098;13.770;2023-12-22T03:09:49;21.80;64.00
65752;DHT22;52486;51.098;13.770;2023-12-22T03:12:15;21.90;64.00
65752;DHT22;52486;51.098;13.770;2023-12-22T03:14:40;21.90;63.90
65752;DHT22;52486;51.098;13.770;2023-12-22T03:17:08;22.00;63.90
65752;DHT22;52486;51.098;13.770;2023-12-22T03:19:35;21.70;63.70
65752;DHT22;52486;51.098;13.770;2023-12-22T03:22:00;21.80;63.60
65752;DHT22;52486;51.098;13.770;2023-12-22T03:24:26;21.90;63.80
65752;DHT22;52486;51.098;13.770;2023-12-22T03:26:52;21.90;63.70
65752;DHT22;52486;51.098;13.770;2023-12-22T03:29:18;21.90;63.70
65752;DHT22;52486;51.098;13.770;2023-12-22T03:31:44;22.10;63.80
65752;DHT22;52486;51.098;13.770;2023-12-22T03:34:09;21.90;63.70
65752;DHT22;52486;51.098;13.770;2023-12-22T03:36:35;21.90;63.70
65752;DHT22;52486;51.098;13.770;2023-12-22T03:39:00;21.90;63.70
65752;DHT22;52486;51.098;13.770;2023-12-22T03:41:26;22.00;63.80
65752;DHT22;52486;51.098;13.770;2023-12-22T03:43:52;21.90;63.70
65752;DHT22;52486;51.098;13.770;2023-12-22T03:46:17;21.90;63.70
65752;DHT22;52486;51.098;13.770;2023-12-22T03:48:44;22.00;63.70
65752;DHT22;52486;51.098;13.770;2023-12-22T03:53:37;21.80;63.50
65752;DHT22;52486;51.098;13.770;2023-12-22T03:56:02;22.00;63.70
65752;DHT22;52486;51.098;13.770;2023-12-22T03:58:28;21.80;63.60
65752;DHT22;52486;51.098;13.770;2023-12-22T04:00:55;22.00;63.70
65752;DHT22;52486;51.098;13.770;2023-12-22T04:03:20;21.90;63.70
65752;DHT22;52486;51.098;13.770;2023-12-22T04:05:46;21.90;63.80
65752;DHT22;52486;51.098;13.770;2023-12-22T04:08:11;22.00;63.80
65752;DHT22;52486;51.098;13.770;2023-12-22T04:10:37;21.90;63.90
65752;DHT22;52486;51.098;13.770;2023-12-22T04:13:02;21.80;63.80
65752;DHT22;52486;51.098;13.770;2023-12-22T04:17:54;21.80;63.70
65752;DHT22;52486;51.098;13.770;2023-12-22T04:20:19;21.70;63.80
65752;DHT22;52486;51.098;13.770;2023-12-22T04:22:45;21.70;63.80
65752;DHT22;52486;51.098;13.770;2023-12-22T04:25:10;21.80;63.90
65752;DHT22;52486;51.098;13.770;2023-12-22T04:27:36;21.80;63.90
65752;DHT22;52486;51.098;13.770;2023-12-22T04:32:27;21.80;63.70
65752;DHT22;52486;51.098;13.770;2023-12-22T04:34:53;21.70;63.80
65752;DHT22;52486;51.098;13.770;2023-12-22T04:39:44;21.60;63.80
65752;DHT22;52486;51.098;13.770;2023-12-22T04:42:10;21.70;63.80
65752;DHT22;52486;51.098;13.770;2023-12-22T04:44:35;21.70;63.80
65752;DHT22;52486;51.098;13.770;2023-12-22T04:47:01;21.90;63.90
65752;DHT22;52486;51.098;13.770;2023-12-22T04:51:52;21.80;63.60
65752;DHT22;52486;51.098;13.770;2023-12-22T04:54:18;21.80;63.70
65752;DHT22;52486;51.098;13.770;2023-12-22T04:56:43;21.70;63.50
65752;DHT22;52486;51.098;13.770;2023-12-22T05:01:35;21.80;63.40
65752;DHT22;52486;51.098;13.770;2023-12-22T05:04:00;22.10;63.70
65752;DHT22;52486;51.098;13.770;2023-12-22T05:06:27;22.00;63.60
65752;DHT22;52486;51.098;13.770;2023-12-22T05:08:54;21.90;63.60
65752;DHT22;52486;51.098;13.770;2023-12-22T05:11:19;21.80;63.50
65752;DHT22;52486;51.098;13.770;2023-12-22T05:16:11;21.90;63.60
65752;DHT22;52486;51.098;13.770;2023-12-22T05:18:37;21.90;63.50
65752;DHT22;52486;51.098;13.770;2023-12-22T05:21:03;21.90;63.60
65752;DHT22;52486;51.098;13.770;2023-12-22T05:23:28;21.90;63.60
65752;DHT22;52486;51.098;13.770;2023-12-22T05:25:54;22.00;63.70
65752;DHT22;52486;51.098;13.770;2023-12-22T05:28:19;22.00;63.50
65752;DHT22;52486;51.098;13.770;2023-12-22T05:30:45;22.00;63.50
65752;DHT22;52486;51.098;13.770;2023-12-22T05:33:10;21.80;63.40
65752;DHT22;52486;51.098;13.770;2023-12-22T05:35:36;21.80;63.50
65752;DHT22;52486;51.098;13.770;2023-12-22T05:38:02;21.90;63.60
65752;DHT22;52486;51.098;13.770;2023-12-22T05:40:27;21.60;63.50
65752;DHT22;52486;51.098;13.770;2023-12-22T05:42:53;21.90;63.70
65752;DHT22;52486;51.098;13.770;2023-12-22T05:47:44;21.60;63.70
65752;DHT22;52486;51.098;13.770;2023-12-22T05:50:09;21.60;63.50
65752;DHT22;52486;51.098;13.770;2023-12-22T05:52:36;21.80;63.70
65752;DHT22;52486;51.098;13.770;2023-12-22T05:55:01;21.70;63.70
65752;DHT22;52486;51.098;13.770;2023-12-22T05:57:27;21.50;63.80
65752;DHT22;52486;51.098;13.770;2023-12-22T05:59:53;21.80;63.80
65752;DHT22;52486;51.098;13.770;2023-12-22T06:04:44;21.90;63.80
65752;DHT22;52486;51.098;13.770;2023-12-22T06:07:10;21.60;63.70
65752;DHT22;52486;51.098;13.770;2023-12-22T06:09:36;21.80;63.80
65752;DHT22;52486;51.098;13.770;2023-12-22T06:12:01;21.60;63.60
65752;DHT22;52486;51.098;13.770;2023-12-22T06:14:27;21.80;63.70
65752;DHT22;52486;51.098;13.770;2023-12-22T06:16:52;21.60;63.50
65752;DHT22;52486;51.098;13.770;2023-12-22T06:19:19;21.80;63.60
65752;DHT22;52486;51.098;13.770;2023-12-22T06:21:44;21.80;63.50
65752;DHT22;52486;51.098;13.770;2023-12-22T06:26:36;21.90;63.40
65752;DHT22;52486;51.098;13.770;2023-12-22T06:29:01;21.90;63.50
65752;DHT22;52486;51.098;13.770;2023-12-22T06:31:29;21.80;63.40
65752;DHT22;52486;51.098;13.770;2023-12-22T06:33:54;22.00;63.50
65752;DHT22;52486;51.098;13.770;2023-12-22T06:36:24;22.00;63.50
65752;DHT22;52486;51.098;13.770;2023-12-22T06:38:52;21.90;62.80
65752;DHT22;52486;51.098;13.770;2023-12-22T06:43:44;21.80;63.20
65752;DHT22;52486;51.098;13.770;2023-12-22T06:46:19;21.90;63.50
65752;DHT22;52486;51.098;13.770;2023-12-22T06:51:17;21.70;62.00
65752;DHT22;52486;51.098;13.770;2023-12-22T06:53:44;21.80;63.30
65752;DHT22;52486;51.098;13.770;2023-12-22T06:56:20;22.00;63.40
65752;DHT22;52486;51.098;13.770;2023-12-22T06:58:46;21.80;63.30
65752;DHT22;52486;51.098;13.770;2023-12-22T07:01:22;21.90;63.40
65752;DHT22;52486;51.098;13.770;2023-12-22T07:03:47;21.70;63.30
65752;DHT22;52486;51.098;13.770;2023-12-22T07:06:16;22.00;63.40
65752;DHT22;52486;51.098;13.770;2023-12-22T07:08:42;21.70;63.30
65752;DHT22;52486;51.098;13.770;2023-12-22T07:11:08;21.90;63.40
65752;DHT22;52486;51.098;13.770;2023-12-22T07:16:00;21.80;63.50
65752;DHT22;52486;51.098;13.770;2023-12-22T07:18:27;21.80;63.80
65752;DHT22;52486;51.098;13.770;2023-12-22T07:20:59;21.80;64.10
65752;DHT22;52486;51.098;13.770;2023-12-22T07:23:24;22.00;63.80
65752;DHT22;52486;51.098;13.770;2023-12-22T07:25:50;22.10;64.10
65752;DHT22;52486;51.098;13.770;2023-12-22T07:28:15;22.10;63.90
65752;DHT22;52486;51.098;13.770;2023-12-22T07:30:41;22.10;63.80
65752;DHT22;52486;51.098;13.770;2023-12-22T07:33:07;22.10;64.10
65752;DHT22;52486;51.098;13.770;2023-12-22T07:35:32;22.10;64.00
65752;DHT22;52486;51.098;13.770;2023-12-22T07:37:58;22.00;63.80
65752;DHT22;52486;51.098;13.770;2023-12-22T07:40:23;22.00;63.70
65752;DHT22;52486;51.098;13.770;2023-12-22T07:42:49;22.00;63.60
65752;DHT22;52486;51.098;13.770;2023-12-22T07:47:41;22.20;63.50
65752;DHT22;52486;51.098;13.770;2023-12-22T07:50:07;22.30;63.60
65752;DHT22;52486;51.098;13.770;2023-12-22T07:52:37;22.40;63.40
65752;DHT22;52486;51.098;13.770;2023-12-22T07:55:05;22.30;63.20
65752;DHT22;52486;51.098;13.770;2023-12-22T07:57:31;22.70;63.20
65752;DHT22;52486;51.098;13.770;2023-12-22T07:59:56;22.50;63.10
65752;DHT22;52486;51.098;13.770;2023-12-22T08:02:22;22.40;63.10
65752;DHT22;52486;51.098;13.770;2023-12-22T08:04:49;22.80;63.20
65752;DHT22;52486;51.098;13.770;2023-12-22T08:07:15;22.70;63.20
65752;DHT22;52486;51.098;13.770;2023-12-22T08:09:41;22.60;63.00
65752;DHT22;52486;51.098;13.770;2023-12-22T08:12:07;22.70;62.90
65752;DHT22;52486;51.098;13.770;2023-12-22T08:14:32;22.80;62.70
65752;DHT22;52486;51.098;13.770;2023-12-22T08:16:58;22.70;62.90
65752;DHT22;52486;51.098;13.770;2023-12-22T08:19:23;22.80;62.90
65752;DHT22;52486;51.098;13.770;2023-12-22T08:21:53;22.70;62.70
65752;DHT22;52486;51.098;13.770;2023-12-22T08:24:20;22.80;62.80
65752;DHT22;52486;51.098;13.770;2023-12-22T08:26:45;22.70;62.80
65752;DHT22;52486;51.098;13.770;2023-12-22T08:29:11;22.80;62.80
65752;DHT22;52486;51.098;13.770;2023-12-22T08:31:36;22.80;62.90
65752;DHT22;52486;51.098;13.770;2023-12-22T08:34:02;23.10;62.20
65752;DHT22;52486;51.098;13.770;2023-12-22T08:36:27;23.00;63.00
65752;DHT22;52486;51.098;13.770;2023-12-22T08:38:53;22.80;62.90
65752;DHT22;52486;51.098;13.770;2023-12-22T08:43:44;22.80;62.80
65752;DHT22;52486;51.098;13.770;2023-12-22T08:46:09;23.00;62.80
65752;DHT22;52486;51.098;13.770;2023-12-22T08:51:01;22.90;62.70
65752;DHT22;52486;51.098;13.770;2023-12-22T08:53:27;22.80;62.70
65752;DHT22;52486;51.098;13.770;2023-12-22T08:55:55;23.00;62.70
65752;DHT22;52486;51.098;13.770;2023-12-22T08:58:21;23.10;63.00
65752;DHT22;52486;51.098;13.770;2023-12-22T09:00:47;22.90;62.80
65752;DHT22;52486;51.098;13.770;2023-12-22T09:03:13;23.00;63.00
65752;DHT22;52486;51.098;13.770;2023-12-22T09:05:38;23.00;62.90
65752;DHT22;52486;51.098;13.770;2023-12-22T09:08:04;23.00;62.60
65752;DHT22;52486;51.098;13.770;2023-12-22T09:10:31;22.90;62.60
65752;DHT22;52486;51.098;13.770;2023-12-22T09:12:57;23.20;62.70
65752;DHT22;52486;51.098;13.770;2023-12-22T09:15:23;23.00;62.50
65752;DHT22;52486;51.098;13.770;2023-12-22T09:17:48;22.90;62.50
65752;DHT22;52486;51.098;13.770;2023-12-22T09:20:15;22.90;62.40
65752;DHT22;52486;51.098;13.770;2023-12-22T09:22:40;23.00;62.50
65752;DHT22;52486;51.098;13.770;2023-12-22T09:25:06;23.20;62.70
65752;DHT22;52486;51.098;13.770;2023-12-22T09:27:31;23.10;62.50
65752;DHT22;52486;51.098;13.770;2023-12-22T09:29:57;23.00;62.30
65752;DHT22;52486;51.098;13.770;2023-12-22T09:32:22;23.20;62.40
65752;DHT22;52486;51.098;13.770;2023-12-22T09:34:48;23.20;62.30
65752;DHT22;52486;51.098;13.770;2023-12-22T09:37:14;23.20;62.80
65752;DHT22;52486;51.098;13.770;2023-12-22T09:39:39;23.20;62.20
65752;DHT22;52486;51.098;13.770;2023-12-22T09:42:05;23.20;62.20
65752;DHT22;52486;51.098;13.770;2023-12-22T09:44:31;23.30;62.30
65752;DHT22;52486;51.098;13.770;2023-12-22T09:46:57;23.10;62.10
65752;DHT22;52486;51.098;13.770;2023-12-22T09:51:50;23.40;59.70
65752;DHT22;52486;51.098;13.770;2023-12-22T09:54:15;23.10;62.40
65752;DHT22;52486;51.098;13.770;2023-12-22T09:56:41;23.20;62.60
65752;DHT22;52486;51.098;13.770;2023-12-22T09:59:11;23.40;62.60
65752;DHT22;52486;51.098;13.770;2023-12-22T10:04:05;23.10;62.40
65752;DHT22;52486;51.098;13.770;2023-12-22T10:06:31;23.40;62.50
65752;DHT22;52486;51.098;13.770;2023-12-22T10:08:56;23.50;62.50
65752;DHT22;52486;51.098;13.770;2023-12-22T10:11:22;23.30;62.60
65752;DHT22;52486;51.098;13.770;2023-12-22T10:13:49;23.50;62.70
65752;DHT22;52486;51.098;13.770;2023-12-22T10:16:15;23.20;62.60
65752;DHT22;52486;51.098;13.770;2023-12-22T10:18:41;23.10;62.50
65752;DHT22;52486;51.098;13.770;2023-12-22T10:21:06;23.20;62.60
65752;DHT22;52486;51.098;13.770;2023-12-22T10:23:32;23.30;62.80
65752;DHT22;52486;51.098;13.770;2023-12-22T10:25:57;23.20;62.70
65752;DHT22;52486;51.098;13.770;2023-12-22T10:28:23;23.20;62.80
65752;DHT22;52486;51.098;13.770;2023-12-22T10:30:51;23.40;62.70
65752;DHT22;52486;51.098;13.770;2023-12-22T10:33:18;23.30;62.70
65752;DHT22;52486;51.098;13.770;2023-12-22T10:35:43;22.90;62.60
65752;DHT22;52486;51.098;13.770;2023-12-22T10:38:09;23.10;62.60
65752;DHT22;52486;51.098;13.770;2023-12-22T10:40:36;23.40;62.80
65752;DHT22;52486;51.098;13.770;2023-12-22T10:43:02;23.50;62.80
65752;DHT22;52486;51.098;13.770;2023-12-22T10:45:28;23.40;62.70
65752;DHT22;52486;51.098;13.770;2023-12-22T10:47:54;23.30;62.60
65752;DHT22;52486;51.098;13.770;2023-12-22T10:50:20;23.40;62.60
65752;DHT22;52486;51.098;13.770;2023-12-22T10:52:49;23.10;62.40
65752;DHT22;52486;51.098;13.770;2023-12-22T10:55:15;23.30;62.30
65752;DHT22;52486;51.098;13.770;2023-12-22T10:57:40;23.50;62.30
65752;DHT22;52486;51.098;13.770;2023-12-22T11:00:06;23.40;62.20
65752;DHT22;52486;51.098;13.770;2023-12-22T11:02:35;23.50;59.80
65752;DHT22;52486;51.098;13.770;2023-12-22T11:05:01;23.20;62.00
65752;DHT22;52486;51.098;13.770;2023-12-22T11:09:53;23.20;62.10
65752;DHT22;52486;51.098;13.770;2023-12-22T11:12:20;25.80;64.20
65752;DHT22;52486;51.098;13.770;2023-12-22T11:14:46;23.50;62.10
65752;DHT22;52486;51.098;13.770;2023-12-22T11:17:19;23.30;61.90
65752;DHT22;52486;51.098;13.770;2023-12-22T11:19:47;23.20;61.70
65752;DHT22;52486;51.098;13.770;2023-12-22T11:22:12;23.40;61.80
65752;DHT22;52486;51.098;13.770;2023-12-22T11:24:38;23.30;61.70
65752;DHT22;52486;51.098;13.770;2023-12-22T11:27:05;23.40;61.70
65752;DHT22;52486;51.098;13.770;2023-12-22T11:29:31;23.30;61.60
65752;DHT22;52486;51.098;13.770;2023-12-22T11:31:57;23.30;61.70
65752;DHT22;52486;51.098;13.770;2023-12-22T11:34:23;23.40;61.50
65752;DHT22;52486;51.098;13.770;2023-12-22T11:36:49;24.10;62.50
65752;DHT22;52486;51.098;13.770;2023-12-22T11:39:15;23.20;61.40
65752;DHT22;52486;51.098;13.770;2023-12-22T11:41:41;23.20;61.60
65752;DHT22;52486;51.098;13.770;2023-12-22T11:44:07;23.50;61.70
65752;DHT22;52486;51.098;13.770;2023-12-22T11:46:32;23.50;61.90
65752;DHT22;52486;51.098;13.770;2023-12-22T11:48:59;23.40;61.90
65752;DHT22;52486;51.098;13.770;2023-12-22T11:51:25;24.40;62.80
65752;DHT22;52486;51.098;13.770;2023-12-22T11:53:56;23.50;62.10
65752;DHT22;52486;51.098;13.770;2023-12-22T11:56:21;23.50;62.20
65752;DHT22;52486;51.098;13.770;2023-12-22T11:58:51;23.60;62.40
65752;DHT22;52486;51.098;13.770;2023-12-22T12:01:23;23.40;62.40
65752;DHT22;52486;51.098;13.770;2023-12-22T12:06:15;23.40;62.50
65752;DHT22;52486;51.098;13.770;2023-12-22T12:08:42;23.20;62.40
65752;DHT22;52486;51.098;13.770;2023-12-22T12:11:07;23.50;62.70
65752;DHT22;52486;51.098;13.770;2023-12-22T12:13:33;23.50;62.60
65752;DHT22;52486;51.098;13.770;2023-12-22T12:15:59;23.50;62.60
65752;DHT22;52486;51.098;13.770;2023-12-22T12:18:29;23.30;62.50
65752;DHT22;52486;51.098;13.770;2023-12-22T12:20:55;23.50;62.60
65752;DHT22;52486;51.098;13.770;2023-12-22T12:23:23;23.30;62.50
65752;DHT22;52486;51.098;13.770;2023-12-22T12:25:48;23.30;62.50
65752;DHT22;52486;51.098;13.770;2023-12-22T12:28:14;23.20;62.50
65752;DHT22;52486;51.098;13.770;2023-12-22T12:30:43;23.30;62.60
65752;DHT22;52486;51.098;13.770;2023-12-22T12:33:09;23.40;62.60
65752;DHT22;52486;51.098;13.770;2023-12-22T12:35:36;23.20;62.60
65752;DHT22;52486;51.098;13.770;2023-12-22T12:38:02;23.20;62.60
65752;DHT22;52486;51.098;13.770;2023-12-22T12:40:28;23.40;62.60
65752;DHT22;52486;51.098;13.770;2023-12-22T12:45:23;23.50;62.50
65752;DHT22;52486;51.098;13.770;2023-12-22T12:47:55;23.30;62.70
65752;DHT22;52486;51.098;13.770;2023-12-22T12:50:22;23.40;62.60
65752;DHT22;52486;51.098;13.770;2023-12-22T12:52:48;23.40;62.80
65752;DHT22;52486;51.098;13.770;2023-12-22T12:55:17;23.50;62.80
65752;DHT22;52486;51.098;13.770;2023-12-22T12:57:43;23.60;63.00
65752;DHT22;52486;51.098;13.770;2023-12-22T13:00:09;23.50;62.60
65752;DHT22;52486;51.098;13.770;2023-12-22T13:02:35;23.50;62.70
65752;DHT22;52486;51.098;13.770;2023-12-22T13:05:01;23.50;62.80
65752;DHT22;52486;51.098;13.770;2023-12-22T13:07:29;23.60;62.80
65752;DHT22;52486;51.098;13.770;2023-12-22T13:09:55;23.50;62.80
65752;DHT22;52486;51.098;13.770;2023-12-22T13:12:24;24.00;63.10
65752;DHT22;52486;51.098;13.770;2023-12-22T13:14:50;23.30;62.80
65752;DHT22;52486;51.098;13.770;2023-12-22T13:17:16;23.60;62.90
65752;DHT22;52486;51.098;13.770;2023-12-22T13:19:42;23.40;62.80
65752;DHT22;52486;51.098;13.770;2023-12-22T13:22:08;23.60;63.20
65752;DHT22;52486;51.098;13.770;2023-12-22T13:24:33;23.70;63.40
65752;DHT22;52486;51.098;13.770;2023-12-22T13:26:59;23.70;63.40
65752;DHT22;52486;51.098;13.770;2023-12-22T13:29:26;23.50;63.30
65752;DHT22;52486;51.098;13.770;2023-12-22T13:31:51;23.50;63.30
65752;DHT22;52486;51.098;13.770;2023-12-22T13:34:17;23.50;63.40
65752;DHT22;52486;51.098;13.770;2023-12-22T13:36:42;23.50;63.40
65752;DHT22;52486;51.098;13.770;2023-12-22T13:39:08;23.70;63.10
65752;DHT22;52486;51.098;13.770;2023-12-22T13:41:34;23.50;63.60
65752;DHT22;52486;51.098;13.770;2023-12-22T13:44:06;23.60;62.90
65752;DHT22;52486;51.098;13.770;2023-12-22T13:46:31;23.60;60.50
65752;DHT22;52486;51.098;13.770;2023-12-22T13:48:58;23.60;62.90
65752;DHT22;52486;51.098;13.770;2023-12-22T13:51:23;23.70;63.60
65752;DHT22;52486;51.098;13.770;2023-12-22T13:53:49;23.70;63.50
65752;DHT22;52486;51.098;13.770;2023-12-22T13:56:15;23.50;63.30
65752;DHT22;52486;51.098;13.770;2023-12-22T13:58:44;23.70;63.40
65752;DHT22;52486;51.098;13.770;2023-12-22T14:01:17;23.80;63.80
65752;DHT22;52486;51.098;13.770;2023-12-22T14:03:43;23.50;63.20
65752;DHT22;52486;51.098;13.770;2023-12-22T14:06:10;23.70;63.20
65752;DHT22;52486;51.098;13.770;2023-12-22T14:08:40;23.50;63.40
65752;DHT22;52486;51.098;13.770;2023-12-22T14:11:06;23.40;63.40
65752;DHT22;52486;51.098;13.770;2023-12-22T14:13:32;23.50;63.40
65752;DHT22;52486;51.098;13.770;2023-12-22T14:15:58;23.70;64.10
65752;DHT22;52486;51.098;13.770;2023-12-22T14:18:23;23.50;63.50
65752;DHT22;52486;51.098;13.770;2023-12-22T14:20:49;23.70;63.40
65752;DHT22;52486;51.098;13.770;2023-12-22T14:23:14;23.50;63.60
65752;DHT22;52486;51.098;13.770;2023-12-22T14:25:43;23.40;60.80
65752;DHT22;52486;51.098;13.770;2023-12-22T14:28:08;23.50;63.20
65752;DHT22;52486;51.098;13.770;2023-12-22T14:30:34;23.80;64.20
65752;DHT22;52486;51.098;13.770;2023-12-22T14:32:59;23.90;63.50
65752;DHT22;52486;51.098;13.770;2023-12-22T14:35:25;23.50;63.10
65752;DHT22;52486;51.098;13.770;2023-12-22T14:37:50;23.70;63.30
65752;DHT22;52486;51.098;13.770;2023-12-22T14:40:16;23.80;63.70
65752;DHT22;52486;51.098;13.770;2023-12-22T14:42:41;23.50;63.50
65752;DHT22;52486;51.098;13.770;2023-12-22T14:45:07;23.80;63.80
65752;DHT22;52486;51.098;13.770;2023-12-22T14:47:32;23.60;63.50
65752;DHT22;52486;51.098;13.770;2023-12-22T14:49:59;23.70;63.60
65752;DHT22;52486;51.098;13.770;2023-12-22T14:52:30;23.70;63.50
65752;DHT22;52486;51.098;13.770;2023-12-22T14:54:57;23.80;63.60
65752;DHT22;52486;51.098;13.770;2023-12-22T14:57:23;23.90;63.70
65752;DHT22;52486;51.098;13.770;2023-12-22T14:59:48;23.80;63.40
65752;DHT22;52486;51.098;13.770;2023-12-22T15:02:14;24.50;64.50
65752;DHT22;52486;51.098;13.770;2023-12-22T15:04:39;24.00;64.20
65752;DHT22;52486;51.098;13.770;2023-12-22T15:07:05;23.80;63.40
65752;DHT22;52486;51.098;13.770;2023-12-22T15:09:30;23.80;63.30
65752;DHT22;52486;51.098;13.770;2023-12-22T15:11:56;23.90;64.10
65752;DHT22;52486;51.098;13.770;2023-12-22T15:14:21;24.00;63.40
65752;DHT22;52486;51.098;13.770;2023-12-22T15:16:47;23.90;63.20
65752;DHT22;52486;51.098;13.770;2023-12-22T15:19:13;26.10;65.40
65752;DHT22;52486;51.098;13.770;2023-12-22T15:21:39;24.10;63.40
65752;DHT22;52486;51.098;13.770;2023-12-22T15:24:05;25.00;63.80
65752;DHT22;52486;51.098;13.770;2023-12-22T15:26:31;23.80;63.40
65752;DHT22;52486;51.098;13.770;2023-12-22T15:28:59;23.80;63.70
65752;DHT22;52486;51.098;13.770;2023-12-22T15:31:24;23.40;63.10
65752;DHT22;52486;51.098;13.770;2023-12-22T15:33:50;23.70;63.00
65752;DHT22;52486;51.098;13.770;2023-12-22T15:36:16;27.00;66.00
65752;DHT22;52486;51.098;13.770;2023-12-22T15:38:42;23.90;63.70
65752;DHT22;52486;51.098;13.770;2023-12-22T15:41:07;23.90;63.10
65752;DHT22;52486;51.098;13.770;2023-12-22T15:43:33;22.80;63.40
65752;DHT22;52486;51.098;13.770;2023-12-22T15:45:59;23.80;63.00
65752;DHT22;52486;51.098;13.770;2023-12-22T15:48:28;24.00;63.00
65752;DHT22;52486;51.098;13.770;2023-12-22T15:50:53;23.90;63.00
65752;DHT22;52486;51.098;13.770;2023-12-22T15:53:19;24.10;63.20
65752;DHT22;52486;51.098;13.770;2023-12-22T15:55:44;24.10;63.20
65752;DHT22;52486;51.098;13.770;2023-12-22T15:58:10;24.00;64.00
65752;DHT22;52486;51.098;13.770;2023-12-22T16:00:35;23.90;63.10
65752;DHT22;52486;51.098;13.770;2023-12-22T16:03:01;23.60;63.00
65752;DHT22;52486;51.098;13.770;2023-12-22T16:05:26;23.70;63.10
65752;DHT22;52486;51.098;13.770;2023-12-22T16:07:53;23.80;63.20
65752;DHT22;52486;51.098;13.770;2023-12-22T16:10:24;23.80;63.20
65752;DHT22;52486;51.098;13.770;2023-12-22T16:12:49;23.80;63.30
65752;DHT22;52486;51.098;13.770;2023-12-22T16:15:14;25.00;64.70
65752;DHT22;52486;51.098;13.770;2023-12-22T16:17:40;23.50;63.20
65752;DHT22;52486;51.098;13.770;2023-12-22T16:20:06;23.50;63.20
65752;DHT22;52486;51.098;13.770;2023-12-22T16:22:32;23.40;63.30
65752;DHT22;52486;51.098;13.770;2023-12-22T16:24:58;23.50;63.70
65752;DHT22;52486;51.098;13.770;2023-12-22T16:27:24;24.40;64.80
65752;DHT22;52486;51.098;13.770;2023-12-22T16:29:49;23.50;64.30
65752;DHT22;52486;51.098;13.770;2023-12-22T16:32:15;23.40;63.80
65752;DHT22;52486;51.098;13.770;2023-12-22T16:34:41;23.10;63.90
65752;DHT22;52486;51.098;13.770;2023-12-22T16:37:07;23.20;64.10